Portada
METAR-TAF:

METAR-TAF

Aeroports :

Vladikavkaz, Rússia

latitud: 43-12-18N, longitud: 044-36-24E, altitud: 510 m

Observació

L'informe es va fer fa 26 minuts, a les 07:30 UTC
Vent 14 kt del Est
Temperatura 23°C
Humitat 57%
Pressió 1021 hPa
Visibilitat 10 km o més
Escasses núvols

METAR: URMO 060730Z 09007MPS 9999 FEW/// 23/14 Q1021 R09/010070 NOSIG RMK QFE722/0963

Hora: 10:56 (07:56 UTC)

Pronòstic

L'informe es va fer fa 2 hores i 56 minuts, a les 05:00 UTC
Pronòstic vàlid del 06 a les 06 UTC al 06 a les 15 UTC
Vent 6 kt del Est amb ràfegues de 16 kt
Visibilitat 10 km o més
Núvols disperses a una alçada de 3000 ft
Temporalment
l' 06 a les 06 UTC al 06 a les 09 UTC
Vent 2 kt amb direcció variable

TAF: URMO 060500Z 0606/0615 08003G08MPS 9999 SCT030 TEMPO 0606/0609 VRB01MPS

Observacions i pronòstics meteorològics de més de 4000 aeroports (METAR i TAF).

Les estacions disponibles són els punts grocs i vermells al mapa.

Posi el ratolí al punt desitjat per veure el nom de l'estació.

Feu clic per veure les observacions i els pronòstics meteorològics.

Per canviar el mapa: feu clic els botons verds amb una creu de color negre per apropar; al botó verd amb un guió per allunyar la imatge; o en les fletxes verdes per a mapes adjacents.


METAR-TAF: